sensor_id;sensor_type;location;lat;lon;timestamp;P1;durP1;ratioP1;P2;durP2;ratioP2
52508;SDS011;38420;53.150;6.370;2023-02-23T00:01:20;95.75;;;43.45;;
52508;SDS011;38420;53.150;6.370;2023-02-23T00:06:15;97.25;;;44.15;;
52508;SDS011;38420;53.150;6.370;2023-02-23T00:08:41;100.93;;;46.63;;
52508;SDS011;38420;53.150;6.370;2023-02-23T00:11:08;104.05;;;48.03;;
52508;SDS011;38420;53.150;6.370;2023-02-23T00:13:38;125.15;;;53.60;;
52508;SDS011;38420;53.150;6.370;2023-02-23T00:16:09;114.63;;;52.85;;
52508;SDS011;38420;53.150;6.370;2023-02-23T00:18:38;117.07;;;50.90;;
52508;SDS011;38420;53.150;6.370;2023-02-23T00:21:21;121.55;;;53.55;;
52508;SDS011;38420;53.150;6.370;2023-02-23T00:23:50;124.28;;;54.28;;
52508;SDS011;38420;53.150;6.370;2023-02-23T00:26:21;125.88;;;55.35;;
52508;SDS011;38420;53.150;6.370;2023-02-23T00:28:48;126.80;;;56.60;;
52508;SDS011;38420;53.150;6.370;2023-02-23T00:31:15;140.02;;;58.13;;
52508;SDS011;38420;53.150;6.370;2023-02-23T00:33:41;140.48;;;58.50;;
52508;SDS011;38420;53.150;6.370;2023-02-23T00:36:11;139.23;;;56.20;;
52508;SDS011;38420;53.150;6.370;2023-02-23T00:38:39;141.80;;;57.40;;
52508;SDS011;38420;53.150;6.370;2023-02-23T00:41:09;132.40;;;55.83;;
52508;SDS011;38420;53.150;6.370;2023-02-23T00:43:38;141.07;;;56.97;;
52508;SDS011;38420;53.150;6.370;2023-02-23T00:46:24;132.05;;;55.67;;
52508;SDS011;38420;53.150;6.370;2023-02-23T00:48:51;134.15;;;56.25;;
52508;SDS011;38420;53.150;6.370;2023-02-23T00:51:19;131.63;;;55.28;;
52508;SDS011;38420;53.150;6.370;2023-02-23T00:53:45;136.63;;;54.85;;
52508;SDS011;38420;53.150;6.370;2023-02-23T00:56:12;135.57;;;56.15;;
52508;SDS011;38420;53.150;6.370;2023-02-23T00:58:39;132.07;;;54.25;;
52508;SDS011;38420;53.150;6.370;2023-02-23T01:01:09;126.05;;;54.00;;
52508;SDS011;38420;53.150;6.370;2023-02-23T01:03:37;134.20;;;57.28;;
52508;SDS011;38420;53.150;6.370;2023-02-23T01:06:06;129.95;;;58.45;;
52508;SDS011;38420;53.150;6.370;2023-02-23T01:08:34;132.20;;;56.08;;
52508;SDS011;38420;53.150;6.370;2023-02-23T01:11:05;128.93;;;53.85;;
52508;SDS011;38420;53.150;6.370;2023-02-23T01:13:33;131.70;;;55.55;;
52508;SDS011;38420;53.150;6.370;2023-02-23T01:16:02;130.88;;;53.78;;
52508;SDS011;38420;53.150;6.370;2023-02-23T01:18:32;135.13;;;58.15;;
52508;SDS011;38420;53.150;6.370;2023-02-23T01:20:59;134.95;;;56.38;;
52508;SDS011;38420;53.150;6.370;2023-02-23T01:23:25;132.38;;;54.08;;
52508;SDS011;38420;53.150;6.370;2023-02-23T01:25:51;128.82;;;53.38;;
52508;SDS011;38420;53.150;6.370;2023-02-23T01:28:16;138.60;;;56.80;;
52508;SDS011;38420;53.150;6.370;2023-02-23T01:30:42;129.48;;;55.00;;
52508;SDS011;38420;53.150;6.370;2023-02-23T01:33:08;136.23;;;55.25;;
52508;SDS011;38420;53.150;6.370;2023-02-23T01:35:37;128.73;;;54.22;;
52508;SDS011;38420;53.150;6.370;2023-02-23T01:38:03;130.25;;;53.88;;
52508;SDS011;38420;53.150;6.370;2023-02-23T01:40:28;124.32;;;52.08;;
52508;SDS011;38420;53.150;6.370;2023-02-23T01:42:56;126.25;;;55.85;;
52508;SDS011;38420;53.150;6.370;2023-02-23T01:45:34;119.80;;;51.83;;
52508;SDS011;38420;53.150;6.370;2023-02-23T01:48:06;126.10;;;52.90;;
52508;SDS011;38420;53.150;6.370;2023-02-23T01:53:18;123.03;;;52.92;;
52508;SDS011;38420;53.150;6.370;2023-02-23T01:55:46;138.65;;;50.97;;
52508;SDS011;38420;53.150;6.370;2023-02-23T01:58:19;121.18;;;51.83;;
52508;SDS011;38420;53.150;6.370;2023-02-23T02:00:56;128.43;;;53.95;;
52508;SDS011;38420;53.150;6.370;2023-02-23T02:03:28;128.07;;;51.70;;
52508;SDS011;38420;53.150;6.370;2023-02-23T02:06:02;135.05;;;53.25;;
52508;SDS011;38420;53.150;6.370;2023-02-23T02:08:31;130.02;;;52.35;;
52508;SDS011;38420;53.150;6.370;2023-02-23T02:10:59;137.60;;;53.90;;
52508;SDS011;38420;53.150;6.370;2023-02-23T02:13:32;125.07;;;52.80;;
52508;SDS011;38420;53.150;6.370;2023-02-23T02:21:28;120.28;;;51.85;;
52508;SDS011;38420;53.150;6.370;2023-02-23T02:24:25;130.98;;;51.50;;
52508;SDS011;38420;53.150;6.370;2023-02-23T02:27:40;128.10;;;52.63;;
52508;SDS011;38420;53.150;6.370;2023-02-23T02:36:46;134.43;;;53.75;;
52508;SDS011;38420;53.150;6.370;2023-02-23T02:45:20;133.85;;;52.72;;
52508;SDS011;38420;53.150;6.370;2023-02-23T02:48:19;147.15;;;52.60;;
52508;SDS011;38420;53.150;6.370;2023-02-23T02:56:14;135.35;;;52.55;;
52508;SDS011;38420;53.150;6.370;2023-02-23T02:58:44;136.80;;;53.10;;
52508;SDS011;38420;53.150;6.370;2023-02-23T03:01:14;141.63;;;54.13;;
52508;SDS011;38420;53.150;6.370;2023-02-23T03:04:00;142.07;;;53.67;;
52508;SDS011;38420;53.150;6.370;2023-02-23T03:06:58;137.48;;;52.92;;
52508;SDS011;38420;53.150;6.370;2023-02-23T03:09:46;140.85;;;55.03;;
52508;SDS011;38420;53.150;6.370;2023-02-23T03:16:00;141.35;;;53.47;;
52508;SDS011;38420;53.150;6.370;2023-02-23T03:21:57;134.13;;;52.42;;
52508;SDS011;38420;53.150;6.370;2023-02-23T03:30:47;143.52;;;52.47;;
52508;SDS011;38420;53.150;6.370;2023-02-23T03:33:40;151.65;;;54.92;;
52508;SDS011;38420;53.150;6.370;2023-02-23T03:36:33;147.52;;;53.33;;
52508;SDS011;38420;53.150;6.370;2023-02-23T03:42:19;142.73;;;54.05;;
52508;SDS011;38420;53.150;6.370;2023-02-23T03:45:08;155.32;;;54.15;;
52508;SDS011;38420;53.150;6.370;2023-02-23T03:47:57;154.73;;;56.30;;
52508;SDS011;38420;53.150;6.370;2023-02-23T03:50:46;151.52;;;55.33;;
52508;SDS011;38420;53.150;6.370;2023-02-23T03:53:46;155.55;;;55.38;;
52508;SDS011;38420;53.150;6.370;2023-02-23T03:56:36;148.75;;;54.42;;
52508;SDS011;38420;53.150;6.370;2023-02-23T03:59:24;172.27;;;57.33;;
52508;SDS011;38420;53.150;6.370;2023-02-23T04:02:12;150.32;;;53.85;;
52508;SDS011;38420;53.150;6.370;2023-02-23T04:05:00;150.82;;;54.85;;
52508;SDS011;38420;53.150;6.370;2023-02-23T04:07:48;156.40;;;55.35;;
52508;SDS011;38420;53.150;6.370;2023-02-23T04:10:34;166.32;;;54.10;;
52508;SDS011;38420;53.150;6.370;2023-02-23T04:13:23;156.85;;;53.45;;
52508;SDS011;38420;53.150;6.370;2023-02-23T04:16:03;149.77;;;55.15;;
52508;SDS011;38420;53.150;6.370;2023-02-23T04:18:34;152.82;;;54.65;;
52508;SDS011;38420;53.150;6.370;2023-02-23T04:21:01;154.43;;;55.27;;
52508;SDS011;38420;53.150;6.370;2023-02-23T04:23:27;157.77;;;55.03;;
52508;SDS011;38420;53.150;6.370;2023-02-23T04:25:53;159.07;;;56.33;;
52508;SDS011;38420;53.150;6.370;2023-02-23T04:28:20;144.77;;;51.70;;
52508;SDS011;38420;53.150;6.370;2023-02-23T04:30:47;148.73;;;52.70;;
52508;SDS011;38420;53.150;6.370;2023-02-23T04:33:13;146.88;;;53.13;;
52508;SDS011;38420;53.150;6.370;2023-02-23T04:35:39;148.65;;;51.83;;
52508;SDS011;38420;53.150;6.370;2023-02-23T04:38:05;136.43;;;49.00;;
52508;SDS011;38420;53.150;6.370;2023-02-23T04:40:30;124.32;;;48.22;;
52508;SDS011;38420;53.150;6.370;2023-02-23T04:42:56;124.47;;;45.65;;
52508;SDS011;38420;53.150;6.370;2023-02-23T04:45:22;101.63;;;40.75;;
52508;SDS011;38420;53.150;6.370;2023-02-23T04:47:49;116.22;;;41.90;;
52508;SDS011;38420;53.150;6.370;2023-02-23T04:50:15;105.57;;;40.35;;
52508;SDS011;38420;53.150;6.370;2023-02-23T04:52:41;101.05;;;40.83;;
52508;SDS011;38420;53.150;6.370;2023-02-23T04:55:07;108.65;;;40.78;;
52508;SDS011;38420;53.150;6.370;2023-02-23T04:57:39;107.07;;;38.90;;
52508;SDS011;38420;53.150;6.370;2023-02-23T05:00:05;91.75;;;37.15;;
52508;SDS011;38420;53.150;6.370;2023-02-23T05:02:31;94.47;;;38.78;;
52508;SDS011;38420;53.150;6.370;2023-02-23T05:04:56;94.95;;;37.20;;
52508;SDS011;38420;53.150;6.370;2023-02-23T05:07:22;84.38;;;34.75;;
52508;SDS011;38420;53.150;6.370;2023-02-23T05:09:48;88.00;;;34.67;;
52508;SDS011;38420;53.150;6.370;2023-02-23T05:12:13;85.68;;;35.58;;
52508;SDS011;38420;53.150;6.370;2023-02-23T05:14:39;79.65;;;32.80;;
52508;SDS011;38420;53.150;6.370;2023-02-23T05:17:05;81.43;;;31.95;;
52508;SDS011;38420;53.150;6.370;2023-02-23T05:19:31;83.20;;;34.58;;
52508;SDS011;38420;53.150;6.370;2023-02-23T05:21:56;72.63;;;29.55;;
52508;SDS011;38420;53.150;6.370;2023-02-23T05:24:22;71.78;;;31.35;;
52508;SDS011;38420;53.150;6.370;2023-02-23T05:26:48;74.28;;;30.90;;
52508;SDS011;38420;53.150;6.370;2023-02-23T05:29:13;72.90;;;31.55;;
52508;SDS011;38420;53.150;6.370;2023-02-23T05:31:40;75.53;;;31.63;;
52508;SDS011;38420;53.150;6.370;2023-02-23T05:34:06;69.72;;;29.48;;
52508;SDS011;38420;53.150;6.370;2023-02-23T05:36:31;73.13;;;31.50;;
52508;SDS011;38420;53.150;6.370;2023-02-23T05:38:57;68.00;;;30.98;;
52508;SDS011;38420;53.150;6.370;2023-02-23T05:41:22;65.80;;;27.80;;
52508;SDS011;38420;53.150;6.370;2023-02-23T05:43:48;68.97;;;29.85;;
52508;SDS011;38420;53.150;6.370;2023-02-23T05:46:26;65.75;;;28.70;;
52508;SDS011;38420;53.150;6.370;2023-02-23T05:48:54;61.28;;;29.13;;
52508;SDS011;38420;53.150;6.370;2023-02-23T05:51:22;65.65;;;29.23;;
52508;SDS011;38420;53.150;6.370;2023-02-23T05:53:48;66.75;;;28.75;;
52508;SDS011;38420;53.150;6.370;2023-02-23T05:56:14;65.18;;;30.73;;
52508;SDS011;38420;53.150;6.370;2023-02-23T05:58:46;59.67;;;28.08;;
52508;SDS011;38420;53.150;6.370;2023-02-23T06:01:15;69.53;;;31.30;;
52508;SDS011;38420;53.150;6.370;2023-02-23T06:03:42;70.10;;;29.60;;
52508;SDS011;38420;53.150;6.370;2023-02-23T06:06:08;64.40;;;28.85;;
52508;SDS011;38420;53.150;6.370;2023-02-23T06:08:34;72.93;;;31.23;;
52508;SDS011;38420;53.150;6.370;2023-02-23T06:11:00;66.72;;;28.77;;
52508;SDS011;38420;53.150;6.370;2023-02-23T06:13:26;73.25;;;32.10;;
52508;SDS011;38420;53.150;6.370;2023-02-23T06:15:52;74.53;;;32.20;;
52508;SDS011;38420;53.150;6.370;2023-02-23T06:18:18;70.07;;;32.47;;
52508;SDS011;38420;53.150;6.370;2023-02-23T06:20:45;66.18;;;30.05;;
52508;SDS011;38420;53.150;6.370;2023-02-23T06:23:11;67.85;;;30.17;;
52508;SDS011;38420;53.150;6.370;2023-02-23T06:25:37;67.40;;;31.35;;
52508;SDS011;38420;53.150;6.370;2023-02-23T06:28:04;60.70;;;29.08;;
52508;SDS011;38420;53.150;6.370;2023-02-23T06:30:31;63.25;;;29.42;;
52508;SDS011;38420;53.150;6.370;2023-02-23T06:32:57;63.58;;;29.60;;
52508;SDS011;38420;53.150;6.370;2023-02-23T06:35:22;66.93;;;29.23;;
52508;SDS011;38420;53.150;6.370;2023-02-23T06:37:48;65.35;;;28.35;;
52508;SDS011;38420;53.150;6.370;2023-02-23T06:40:13;62.33;;;28.63;;
52508;SDS011;38420;53.150;6.370;2023-02-23T06:42:39;59.22;;;27.85;;
52508;SDS011;38420;53.150;6.370;2023-02-23T06:45:05;61.20;;;28.55;;
52508;SDS011;38420;53.150;6.370;2023-02-23T06:47:31;63.25;;;28.05;;
52508;SDS011;38420;53.150;6.370;2023-02-23T06:49:57;65.05;;;27.92;;
52508;SDS011;38420;53.150;6.370;2023-02-23T06:52:24;61.33;;;27.55;;
52508;SDS011;38420;53.150;6.370;2023-02-23T06:54:50;57.63;;;26.77;;
52508;SDS011;38420;53.150;6.370;2023-02-23T06:57:15;58.47;;;26.10;;
52508;SDS011;38420;53.150;6.370;2023-02-23T06:59:41;58.85;;;27.60;;
52508;SDS011;38420;53.150;6.370;2023-02-23T07:02:09;61.30;;;27.00;;
52508;SDS011;38420;53.150;6.370;2023-02-23T07:04:36;62.88;;;27.35;;
52508;SDS011;38420;53.150;6.370;2023-02-23T07:07:01;58.20;;;27.55;;
52508;SDS011;38420;53.150;6.370;2023-02-23T07:09:27;58.28;;;25.95;;
52508;SDS011;38420;53.150;6.370;2023-02-23T07:11:53;56.75;;;27.65;;
52508;SDS011;38420;53.150;6.370;2023-02-23T07:14:18;55.78;;;26.65;;
52508;SDS011;38420;53.150;6.370;2023-02-23T07:16:44;59.75;;;26.40;;
52508;SDS011;38420;53.150;6.370;2023-02-23T07:19:10;60.38;;;27.13;;
52508;SDS011;38420;53.150;6.370;2023-02-23T07:21:35;54.97;;;25.38;;
52508;SDS011;38420;53.150;6.370;2023-02-23T07:24:01;59.90;;;28.30;;
52508;SDS011;38420;53.150;6.370;2023-02-23T07:26:30;62.08;;;27.30;;
52508;SDS011;38420;53.150;6.370;2023-02-23T07:28:57;56.20;;;26.08;;
52508;SDS011;38420;53.150;6.370;2023-02-23T07:31:23;60.13;;;27.90;;
52508;SDS011;38420;53.150;6.370;2023-02-23T07:33:50;59.28;;;27.85;;
52508;SDS011;38420;53.150;6.370;2023-02-23T07:36:18;51.53;;;25.52;;
52508;SDS011;38420;53.150;6.370;2023-02-23T07:38:47;55.63;;;24.33;;
52508;SDS011;38420;53.150;6.370;2023-02-23T07:41:14;50.80;;;24.67;;
52508;SDS011;38420;53.150;6.370;2023-02-23T07:43:39;53.28;;;25.90;;
52508;SDS011;38420;53.150;6.370;2023-02-23T07:46:05;54.88;;;25.77;;
52508;SDS011;38420;53.150;6.370;2023-02-23T07:48:30;55.20;;;24.23;;
52508;SDS011;38420;53.150;6.370;2023-02-23T07:50:57;52.83;;;23.63;;
52508;SDS011;38420;53.150;6.370;2023-02-23T07:53:22;51.58;;;25.35;;
52508;SDS011;38420;53.150;6.370;2023-02-23T07:55:58;49.85;;;23.40;;
52508;SDS011;38420;53.150;6.370;2023-02-23T07:58:25;59.63;;;25.70;;
52508;SDS011;38420;53.150;6.370;2023-02-23T08:00:51;53.92;;;25.17;;
52508;SDS011;38420;53.150;6.370;2023-02-23T08:03:18;58.40;;;23.67;;
52508;SDS011;38420;53.150;6.370;2023-02-23T08:05:43;51.85;;;26.05;;
52508;SDS011;38420;53.150;6.370;2023-02-23T08:08:09;59.70;;;25.73;;
52508;SDS011;38420;53.150;6.370;2023-02-23T08:10:36;55.03;;;24.90;;
52508;SDS011;38420;53.150;6.370;2023-02-23T08:13:02;54.28;;;26.60;;
52508;SDS011;38420;53.150;6.370;2023-02-23T08:15:28;55.10;;;26.35;;
52508;SDS011;38420;53.150;6.370;2023-02-23T08:17:55;58.75;;;24.83;;
52508;SDS011;38420;53.150;6.370;2023-02-23T08:20:21;54.53;;;24.58;;
52508;SDS011;38420;53.150;6.370;2023-02-23T08:22:52;56.88;;;25.75;;
52508;SDS011;38420;53.150;6.370;2023-02-23T08:25:18;50.93;;;24.57;;
52508;SDS011;38420;53.150;6.370;2023-02-23T08:27:44;55.45;;;25.85;;
52508;SDS011;38420;53.150;6.370;2023-02-23T08:30:10;57.30;;;26.60;;
52508;SDS011;38420;53.150;6.370;2023-02-23T08:32:38;59.20;;;24.98;;
52508;SDS011;38420;53.150;6.370;2023-02-23T08:35:04;55.22;;;25.88;;
52508;SDS011;38420;53.150;6.370;2023-02-23T08:37:31;56.75;;;25.52;;
52508;SDS011;38420;53.150;6.370;2023-02-23T08:39:57;60.28;;;25.80;;
52508;SDS011;38420;53.150;6.370;2023-02-23T08:42:25;59.67;;;25.50;;
52508;SDS011;38420;53.150;6.370;2023-02-23T08:44:51;62.72;;;25.77;;
52508;SDS011;38420;53.150;6.370;2023-02-23T08:47:17;60.95;;;27.20;;
52508;SDS011;38420;53.150;6.370;2023-02-23T08:49:47;55.97;;;25.75;;
52508;SDS011;38420;53.150;6.370;2023-02-23T08:52:14;59.63;;;28.48;;
52508;SDS011;38420;53.150;6.370;2023-02-23T08:54:39;64.43;;;27.73;;
52508;SDS011;38420;53.150;6.370;2023-02-23T08:57:05;63.17;;;27.45;;
52508;SDS011;38420;53.150;6.370;2023-02-23T08:59:31;52.92;;;24.52;;
52508;SDS011;38420;53.150;6.370;2023-02-23T09:01:56;62.92;;;27.10;;
52508;SDS011;38420;53.150;6.370;2023-02-23T09:04:22;59.38;;;25.30;;
52508;SDS011;38420;53.150;6.370;2023-02-23T09:06:48;60.85;;;25.77;;
52508;SDS011;38420;53.150;6.370;2023-02-23T09:09:14;58.65;;;26.85;;
52508;SDS011;38420;53.150;6.370;2023-02-23T09:11:40;60.13;;;26.88;;
52508;SDS011;38420;53.150;6.370;2023-02-23T09:14:06;56.08;;;25.30;;
52508;SDS011;38420;53.150;6.370;2023-02-23T09:16:32;59.55;;;26.92;;
52508;SDS011;38420;53.150;6.370;2023-02-23T09:18:59;59.10;;;26.83;;
52508;SDS011;38420;53.150;6.370;2023-02-23T09:21:26;57.55;;;26.23;;
52508;SDS011;38420;53.150;6.370;2023-02-23T09:23:54;63.40;;;26.52;;
52508;SDS011;38420;53.150;6.370;2023-02-23T09:26:20;60.70;;;25.42;;
52508;SDS011;38420;53.150;6.370;2023-02-23T09:28:47;57.10;;;27.40;;
52508;SDS011;38420;53.150;6.370;2023-02-23T09:31:14;58.28;;;26.02;;
52508;SDS011;38420;53.150;6.370;2023-02-23T09:33:43;56.92;;;26.77;;
52508;SDS011;38420;53.150;6.370;2023-02-23T09:36:09;58.80;;;26.75;;
52508;SDS011;38420;53.150;6.370;2023-02-23T09:38:38;55.67;;;25.75;;
52508;SDS011;38420;53.150;6.370;2023-02-23T09:41:05;55.53;;;24.83;;
52508;SDS011;38420;53.150;6.370;2023-02-23T09:43:58;53.63;;;24.73;;
52508;SDS011;38420;53.150;6.370;2023-02-23T09:49:17;57.70;;;26.63;;
52508;SDS011;38420;53.150;6.370;2023-02-23T09:51:48;60.15;;;25.45;;
52508;SDS011;38420;53.150;6.370;2023-02-23T09:54:21;58.80;;;26.98;;
52508;SDS011;38420;53.150;6.370;2023-02-23T09:56:49;61.67;;;28.05;;
52508;SDS011;38420;53.150;6.370;2023-02-23T09:59:17;64.20;;;26.77;;
52508;SDS011;38420;53.150;6.370;2023-02-23T10:01:49;64.40;;;26.80;;
52508;SDS011;38420;53.150;6.370;2023-02-23T10:04:44;64.53;;;27.45;;
52508;SDS011;38420;53.150;6.370;2023-02-23T10:10:02;66.07;;;28.88;;
52508;SDS011;38420;53.150;6.370;2023-02-23T10:12:40;65.35;;;27.45;;
52508;SDS011;38420;53.150;6.370;2023-02-23T10:15:27;69.78;;;28.15;;
52508;SDS011;38420;53.150;6.370;2023-02-23T10:21:05;79.03;;;31.47;;
52508;SDS011;38420;53.150;6.370;2023-02-23T10:26:14;83.18;;;33.95;;
52508;SDS011;38420;53.150;6.370;2023-02-23T10:28:43;87.13;;;32.65;;
52508;SDS011;38420;53.150;6.370;2023-02-23T10:31:24;82.28;;;31.88;;
52508;SDS011;38420;53.150;6.370;2023-02-23T10:33:53;89.18;;;34.45;;
52508;SDS011;38420;53.150;6.370;2023-02-23T10:36:30;87.65;;;33.95;;
52508;SDS011;38420;53.150;6.370;2023-02-23T10:38:59;97.35;;;36.53;;
52508;SDS011;38420;53.150;6.370;2023-02-23T10:41:24;93.47;;;35.00;;
52508;SDS011;38420;53.150;6.370;2023-02-23T10:43:50;102.32;;;35.60;;
52508;SDS011;38420;53.150;6.370;2023-02-23T10:46:17;96.45;;;36.05;;
52508;SDS011;38420;53.150;6.370;2023-02-23T10:48:46;97.68;;;35.20;;
52508;SDS011;38420;53.150;6.370;2023-02-23T10:51:15;97.30;;;34.38;;
52508;SDS011;38420;53.150;6.370;2023-02-23T10:53:45;96.30;;;32.00;;
52508;SDS011;38420;53.150;6.370;2023-02-23T10:56:16;98.88;;;34.65;;
52508;SDS011;38420;53.150;6.370;2023-02-23T11:01:10;100.32;;;35.10;;
52508;SDS011;38420;53.150;6.370;2023-02-23T11:03:41;96.20;;;32.70;;
52508;SDS011;38420;53.150;6.370;2023-02-23T11:09:08;86.22;;;29.60;;
52508;SDS011;38420;53.150;6.370;2023-02-23T11:14:22;69.10;;;24.27;;
52508;SDS011;38420;53.150;6.370;2023-02-23T11:16:51;71.80;;;23.25;;
52508;SDS011;38420;53.150;6.370;2023-02-23T11:19:26;69.55;;;23.35;;
52508;SDS011;38420;53.150;6.370;2023-02-23T11:21:57;67.90;;;22.75;;
52508;SDS011;38420;53.150;6.370;2023-02-23T11:26:52;68.60;;;24.13;;
52508;SDS011;38420;53.150;6.370;2023-02-23T11:29:41;68.55;;;22.65;;
52508;SDS011;38420;53.150;6.370;2023-02-23T11:34:37;76.13;;;24.08;;
52508;SDS011;38420;53.150;6.370;2023-02-23T11:37:06;75.60;;;25.30;;
52508;SDS011;38420;53.150;6.370;2023-02-23T11:42:17;84.38;;;28.85;;
52508;SDS011;38420;53.150;6.370;2023-02-23T11:47:31;81.85;;;27.42;;
52508;SDS011;38420;53.150;6.370;2023-02-23T11:49:59;92.88;;;31.63;;
52508;SDS011;38420;53.150;6.370;2023-02-23T11:52:27;93.75;;;29.17;;
52508;SDS011;38420;53.150;6.370;2023-02-23T11:54:57;91.28;;;30.92;;
52508;SDS011;38420;53.150;6.370;2023-02-23T11:57:27;105.97;;;32.90;;
52508;SDS011;38420;53.150;6.370;2023-02-23T11:59:56;98.78;;;32.72;;
52508;SDS011;38420;53.150;6.370;2023-02-23T12:02:28;102.22;;;32.95;;
52508;SDS011;38420;53.150;6.370;2023-02-23T12:05:03;109.88;;;35.83;;
52508;SDS011;38420;53.150;6.370;2023-02-23T12:07:34;119.53;;;37.85;;
52508;SDS011;38420;53.150;6.370;2023-02-23T12:15:34;109.13;;;38.60;;
52508;SDS011;38420;53.150;6.370;2023-02-23T12:20:57;117.90;;;36.55;;
52508;SDS011;38420;53.150;6.370;2023-02-23T12:23:43;110.25;;;35.05;;
52508;SDS011;38420;53.150;6.370;2023-02-23T12:26:14;110.50;;;36.40;;
52508;SDS011;38420;53.150;6.370;2023-02-23T12:28:45;113.50;;;37.22;;
52508;SDS011;38420;53.150;6.370;2023-02-23T12:31:36;120.38;;;41.05;;
52508;SDS011;38420;53.150;6.370;2023-02-23T12:34:26;116.25;;;38.67;;
52508;SDS011;38420;53.150;6.370;2023-02-23T12:39:42;134.30;;;39.75;;
52508;SDS011;38420;53.150;6.370;2023-02-23T12:50:04;128.23;;;41.60;;
52508;SDS011;38420;53.150;6.370;2023-02-23T12:52:53;123.55;;;38.35;;
52508;SDS011;38420;53.150;6.370;2023-02-23T12:58:23;43.03;;;12.85;;
52508;SDS011;38420;53.150;6.370;2023-02-23T13:03:40;25.73;;;6.97;;
52508;SDS011;38420;53.150;6.370;2023-02-23T13:06:11;24.10;;;4.82;;
52508;SDS011;38420;53.150;6.370;2023-02-23T13:08:55;21.83;;;6.15;;
52508;SDS011;38420;53.150;6.370;2023-02-23T13:14:32;23.67;;;5.40;;
52508;SDS011;38420;53.150;6.370;2023-02-23T13:17:09;35.85;;;7.75;;
52508;SDS011;38420;53.150;6.370;2023-02-23T13:19:57;37.38;;;7.13;;
52508;SDS011;38420;53.150;6.370;2023-02-23T13:22:39;45.03;;;8.00;;
52508;SDS011;38420;53.150;6.370;2023-02-23T13:25:24;54.42;;;8.57;;
52508;SDS011;38420;53.150;6.370;2023-02-23T13:28:02;53.80;;;9.38;;
52508;SDS011;38420;53.150;6.370;2023-02-23T13:30:30;59.20;;;8.65;;
52508;SDS011;38420;53.150;6.370;2023-02-23T13:32:56;55.45;;;9.45;;
52508;SDS011;38420;53.150;6.370;2023-02-23T13:35:26;48.83;;;8.93;;
52508;SDS011;38420;53.150;6.370;2023-02-23T13:40:48;56.50;;;10.20;;
52508;SDS011;38420;53.150;6.370;2023-02-23T13:43:29;56.42;;;8.40;;
52508;SDS011;38420;53.150;6.370;2023-02-23T13:51:56;59.45;;;9.93;;
52508;SDS011;38420;53.150;6.370;2023-02-23T13:54:30;53.13;;;9.45;;
52508;SDS011;38420;53.150;6.370;2023-02-23T13:57:03;54.40;;;7.85;;
52508;SDS011;38420;53.150;6.370;2023-02-23T13:59:37;48.30;;;8.50;;
52508;SDS011;38420;53.150;6.370;2023-02-23T14:07:55;54.33;;;8.10;;
52508;SDS011;38420;53.150;6.370;2023-02-23T14:10:36;62.00;;;8.55;;
52508;SDS011;38420;53.150;6.370;2023-02-23T14:15:46;53.88;;;8.75;;
52508;SDS011;38420;53.150;6.370;2023-02-23T14:25:52;57.97;;;7.78;;
52508;SDS011;38420;53.150;6.370;2023-02-23T14:41:21;52.08;;;7.53;;
52508;SDS011;38420;53.150;6.370;2023-02-23T14:43:54;41.70;;;6.93;;
52508;SDS011;38420;53.150;6.370;2023-02-23T14:46:24;45.50;;;7.20;;
52508;SDS011;38420;53.150;6.370;2023-02-23T14:51:41;46.75;;;8.40;;
52508;SDS011;38420;53.150;6.370;2023-02-23T14:56:51;43.38;;;7.80;;
52508;SDS011;38420;53.150;6.370;2023-02-23T14:59:21;51.83;;;8.55;;
52508;SDS011;38420;53.150;6.370;2023-02-23T15:01:48;39.28;;;6.72;;
52508;SDS011;38420;53.150;6.370;2023-02-23T15:04:25;41.72;;;7.43;;
52508;SDS011;38420;53.150;6.370;2023-02-23T15:06:54;42.28;;;8.15;;
52508;SDS011;38420;53.150;6.370;2023-02-23T15:09:28;44.28;;;6.25;;
52508;SDS011;38420;53.150;6.370;2023-02-23T15:11:59;30.83;;;5.70;;
52508;SDS011;38420;53.150;6.370;2023-02-23T15:14:34;27.90;;;6.47;;
52508;SDS011;38420;53.150;6.370;2023-02-23T15:17:02;36.25;;;5.88;;
52508;SDS011;38420;53.150;6.370;2023-02-23T15:19:28;40.53;;;8.27;;
52508;SDS011;38420;53.150;6.370;2023-02-23T15:21:58;35.65;;;6.07;;
52508;SDS011;38420;53.150;6.370;2023-02-23T15:24:42;30.50;;;6.90;;
52508;SDS011;38420;53.150;6.370;2023-02-23T15:27:16;23.48;;;4.90;;
52508;SDS011;38420;53.150;6.370;2023-02-23T15:29:43;32.53;;;5.03;;
52508;SDS011;38420;53.150;6.370;2023-02-23T15:32:10;19.75;;;4.10;;
52508;SDS011;38420;53.150;6.370;2023-02-23T15:34:40;35.63;;;4.60;;
52508;SDS011;38420;53.150;6.370;2023-02-23T15:37:09;29.83;;;4.32;;
52508;SDS011;38420;53.150;6.370;2023-02-23T15:39:52;26.33;;;4.82;;
52508;SDS011;38420;53.150;6.370;2023-02-23T15:42:23;35.47;;;4.88;;
52508;SDS011;38420;53.150;6.370;2023-02-23T15:44:57;30.90;;;4.85;;
52508;SDS011;38420;53.150;6.370;2023-02-23T15:47:27;26.95;;;4.57;;
52508;SDS011;38420;53.150;6.370;2023-02-23T15:50:31;31.10;;;5.68;;
52508;SDS011;38420;53.150;6.370;2023-02-23T15:52:56;23.92;;;4.15;;
52508;SDS011;38420;53.150;6.370;2023-02-23T15:55:26;26.65;;;4.65;;
52508;SDS011;38420;53.150;6.370;2023-02-23T15:57:59;26.55;;;5.50;;
52508;SDS011;38420;53.150;6.370;2023-02-23T16:00:38;27.15;;;4.53;;
52508;SDS011;38420;53.150;6.370;2023-02-23T16:03:05;23.00;;;3.63;;
52508;SDS011;38420;53.150;6.370;2023-02-23T16:05:52;20.77;;;3.63;;
52508;SDS011;38420;53.150;6.370;2023-02-23T16:08:23;28.63;;;4.78;;
52508;SDS011;38420;53.150;6.370;2023-02-23T16:10:51;21.42;;;3.83;;
52508;SDS011;38420;53.150;6.370;2023-02-23T16:13:24;24.48;;;4.15;;
52508;SDS011;38420;53.150;6.370;2023-02-23T16:15:52;25.52;;;5.40;;
52508;SDS011;38420;53.150;6.370;2023-02-23T16:18:19;29.33;;;7.03;;
52508;SDS011;38420;53.150;6.370;2023-02-23T16:20:52;22.23;;;4.35;;
52508;SDS011;38420;53.150;6.370;2023-02-23T16:23:34;23.63;;;4.57;;
52508;SDS011;38420;53.150;6.370;2023-02-23T16:26:06;16.75;;;3.50;;
52508;SDS011;38420;53.150;6.370;2023-02-23T16:28:34;25.13;;;5.55;;
52508;SDS011;38420;53.150;6.370;2023-02-23T16:31:05;29.07;;;5.70;;
52508;SDS011;38420;53.150;6.370;2023-02-23T16:33:50;29.10;;;5.43;;
52508;SDS011;38420;53.150;6.370;2023-02-23T16:36:22;31.70;;;4.60;;
52508;SDS011;38420;53.150;6.370;2023-02-23T16:38:57;25.60;;;5.35;;
52508;SDS011;38420;53.150;6.370;2023-02-23T16:41:24;20.13;;;4.18;;
52508;SDS011;38420;53.150;6.370;2023-02-23T16:43:52;20.33;;;4.10;;
52508;SDS011;38420;53.150;6.370;2023-02-23T16:46:20;39.70;;;7.25;;
52508;SDS011;38420;53.150;6.370;2023-02-23T16:48:48;23.23;;;4.63;;
52508;SDS011;38420;53.150;6.370;2023-02-23T16:51:15;17.98;;;3.60;;
52508;SDS011;38420;53.150;6.370;2023-02-23T16:53:43;19.35;;;3.70;;
52508;SDS011;38420;53.150;6.370;2023-02-23T16:56:09;23.70;;;4.70;;
52508;SDS011;38420;53.150;6.370;2023-02-23T16:58:40;23.25;;;4.20;;
52508;SDS011;38420;53.150;6.370;2023-02-23T17:01:12;19.02;;;3.45;;
52508;SDS011;38420;53.150;6.370;2023-02-23T17:03:38;21.13;;;3.72;;
52508;SDS011;38420;53.150;6.370;2023-02-23T17:06:05;23.30;;;4.05;;
52508;SDS011;38420;53.150;6.370;2023-02-23T17:08:31;22.33;;;4.47;;